createdAt,value
2023-06-08T00:02:37.810Z,99422.41
2023-06-08T00:07:41.946Z,99409.34
2023-06-08T00:12:45.780Z,99409.03
2023-06-08T00:17:49.899Z,99401.13
2023-06-08T00:22:53.101Z,99400.81
2023-06-08T00:27:55.819Z,99401.84
2023-06-08T00:32:59.828Z,99391.72
2023-06-08T00:38:02.465Z,99388.69
2023-06-08T00:43:05.233Z,99388.13
2023-06-08T00:48:09.874Z,99391.91
2023-06-08T00:53:13.137Z,99386.38
2023-06-08T00:58:17.095Z,99398.31
2023-06-08T01:03:21.629Z,99389.59
2023-06-08T01:08:32.952Z,99383.00
2023-06-08T01:13:41.894Z,99384.06
2023-06-08T01:18:48.461Z,99383.41
2023-06-08T01:24:03.564Z,99376.56
2023-06-08T01:29:07.640Z,99374.59
2023-06-08T01:34:11.639Z,99381.31
2023-06-08T01:39:24.130Z,99385.56
2023-06-08T01:44:28.319Z,99378.75
2023-06-08T01:49:32.264Z,99376.03
2023-06-08T01:54:36.456Z,99378.75
2023-06-08T01:59:39.158Z,99369.72
2023-06-08T02:04:41.845Z,99363.72
2023-06-08T02:09:46.388Z,99367.47
2023-06-08T02:14:49.207Z,99362.50
2023-06-08T02:19:52.297Z,99357.94
2023-06-08T02:24:56.954Z,99358.88
2023-06-08T02:30:00.103Z,99355.56
2023-06-08T02:35:02.938Z,99354.44
2023-06-08T02:40:10.762Z,99350.06
2023-06-08T02:45:15.941Z,99349.13
2023-06-08T02:50:18.967Z,99358.34
2023-06-08T02:55:23.564Z,99355.25
2023-06-08T03:00:27.159Z,99355.75
2023-06-08T03:05:59.815Z,99353.53
2023-06-08T03:11:08.261Z,99350.81
2023-06-08T03:16:14.157Z,99349.06
2023-06-08T03:21:19.624Z,99342.25
2023-06-08T03:26:24.534Z,99346.00
2023-06-08T03:31:27.584Z,99338.16
2023-06-08T03:36:35.108Z,99342.97
2023-06-08T03:41:45.051Z,99337.78
2023-06-08T03:46:49.589Z,99333.66
2023-06-08T03:51:53.474Z,99332.63
2023-06-08T03:56:57.869Z,99327.22
2023-06-08T04:02:01.276Z,99328.84
2023-06-08T04:07:05.928Z,99329.91
2023-06-08T04:12:11.228Z,99331.81
2023-06-08T04:17:14.680Z,99318.50
2023-06-08T04:22:19.165Z,99333.22
2023-06-08T04:27:26.940Z,99337.06
2023-06-08T04:32:29.830Z,99334.31
2023-06-08T04:37:33.207Z,99332.75
2023-06-08T04:42:40.504Z,99330.81
2023-06-08T04:47:44.782Z,99332.72
2023-06-08T04:52:48.133Z,99339.69
2023-06-08T04:57:52.206Z,99335.94
2023-06-08T05:02:54.993Z,99341.81
2023-06-08T05:07:57.737Z,99337.97
2023-06-08T05:13:02.394Z,99341.81
2023-06-08T05:18:05.574Z,99329.34
2023-06-08T05:23:08.300Z,99341.81
2023-06-08T05:28:12.318Z,99335.09
2023-06-08T05:33:15.053Z,99340.84
2023-06-08T05:38:17.832Z,99337.56
2023-06-08T05:43:21.765Z,99342.84
2023-06-08T05:48:24.582Z,99337.75
2023-06-08T05:53:27.316Z,99335.13
2023-06-08T05:58:48.144Z,99340.06
2023-06-08T06:03:52.048Z,99334.47
2023-06-08T06:08:54.919Z,99334.47
2023-06-08T06:14:00.061Z,99339.13
2023-06-08T06:19:03.205Z,99331.00
2023-06-08T06:24:06.868Z,99335.09
2023-06-08T06:29:11.337Z,99336.25
2023-06-08T06:34:14.030Z,99341.19
2023-06-08T06:39:16.961Z,99334.69
2023-06-08T06:44:21.074Z,99347.78
2023-06-08T06:49:23.853Z,99342.56
2023-06-08T06:54:26.485Z,99344.78
2023-06-08T06:59:30.541Z,99349.16
2023-06-08T07:04:34.056Z,99352.41
2023-06-08T07:09:36.984Z,99354.66
2023-06-08T07:14:41.080Z,99344.34
2023-06-08T07:19:43.858Z,99345.53
2023-06-08T07:25:10.760Z,99351.00
2023-06-08T07:30:13.194Z,99349.19
2023-06-08T07:35:15.906Z,99346.25
2023-06-08T07:40:19.672Z,99344.06
2023-06-08T07:45:23.692Z,99341.94
2023-06-08T07:50:26.405Z,99344.66
2023-06-08T07:55:29.052Z,99341.94
2023-06-08T08:00:33.158Z,99340.66
2023-06-08T08:05:35.859Z,99344.41
2023-06-08T08:10:38.843Z,99342.75
2023-06-08T08:15:43.014Z,99342.31
2023-06-08T08:20:45.813Z,99338.25
2023-06-08T08:25:48.667Z,99337.44
2023-06-08T08:30:52.746Z,99321.41
2023-06-08T08:35:55.537Z,99328.22
2023-06-08T08:41:02.822Z,99331.75
2023-06-08T08:46:07.899Z,99320.38
2023-06-08T08:51:13.835Z,99323.03
2023-06-08T08:56:20.801Z,99317.72
2023-06-08T09:01:25.058Z,99309.81
2023-06-08T09:06:29.039Z,99313.25
2023-06-08T09:11:35.683Z,99322.50
2023-06-08T09:16:44.689Z,99321.75
2023-06-08T09:21:48.341Z,99308.94
2023-06-08T09:26:53.103Z,99303.22
2023-06-08T09:31:57.154Z,99305.47
2023-06-08T09:37:07.416Z,99305.59
2023-06-08T09:42:10.811Z,99311.03
2023-06-08T09:47:24.047Z,99308.25
2023-06-08T09:52:27.022Z,99301.38
2023-06-08T09:57:34.768Z,99299.75
2023-06-08T10:02:46.835Z,99299.31
2023-06-08T10:07:50.565Z,99296.22
2023-06-08T10:12:53.460Z,99293.75
2023-06-08T10:17:57.784Z,99287.25
2023-06-08T10:23:01.265Z,99287.00
2023-06-08T10:28:08.384Z,99286.19
2023-06-08T10:33:13.579Z,99280.44
2023-06-08T10:38:17.389Z,99280.75
2023-06-08T10:43:48.342Z,99282.31
2023-06-08T10:48:49.656Z,99277.47
2023-06-08T10:53:57.694Z,99275.31
2023-06-08T10:59:00.631Z,99262.50
2023-06-08T11:04:12.464Z,99267.75
2023-06-08T11:09:22.066Z,99268.88
2023-06-08T11:14:24.698Z,99263.38
2023-06-08T11:19:30.885Z,99257.97
2023-06-08T11:24:33.498Z,99259.34
2023-06-08T11:29:36.364Z,99256.13
2023-06-08T11:34:42.579Z,99242.31
2023-06-08T11:39:45.294Z,99235.78
2023-06-08T11:44:49.825Z,99238.25
2023-06-08T11:49:54.109Z,99233.66
2023-06-08T11:54:57.772Z,99225.75
2023-06-08T12:00:07.239Z,99211.94
2023-06-08T12:05:17.580Z,99215.22
2023-06-08T12:10:20.414Z,99206.31
2023-06-08T12:15:23.062Z,99203.84
2023-06-08T12:20:32.016Z,99212.78
2023-06-08T12:25:35.718Z,99192.72
2023-06-08T12:30:38.324Z,99212.56
2023-06-08T12:35:43.296Z,99206.31
2023-06-08T12:40:48.656Z,99201.41
2023-06-08T12:45:51.665Z,99200.34
2023-06-08T12:50:58.495Z,99191.13
2023-06-08T12:56:01.175Z,99190.59
2023-06-08T13:01:03.857Z,99170.78
2023-06-08T13:06:08.045Z,99172.97
2023-06-08T13:11:10.645Z,99162.13
2023-06-08T13:16:13.436Z,99149.13
2023-06-08T13:21:17.499Z,99168.69
2023-06-08T13:26:20.176Z,99170.31
2023-06-08T13:31:22.869Z,99176.84
2023-06-08T13:36:30.570Z,99177.41
2023-06-08T13:41:36.407Z,99164.88
2023-06-08T13:46:40.498Z,99164.38
2023-06-08T13:51:45.065Z,99161.16
2023-06-08T13:56:48.009Z,99160.06
2023-06-08T14:01:50.777Z,99153.53
2023-06-08T14:06:54.890Z,99154.09
2023-06-08T14:11:57.587Z,99144.91
2023-06-08T14:17:00.365Z,99139.47
2023-06-08T14:22:05.781Z,99134.56
2023-06-08T14:27:08.765Z,99136.22
2023-06-08T14:32:11.426Z,99125.94
2023-06-08T14:37:15.413Z,99123.47
2023-06-08T14:42:18.067Z,99120.50
2023-06-08T14:47:20.945Z,99112.88
2023-06-08T14:52:24.902Z,99111.81
2023-06-08T14:57:28.154Z,99104.50
2023-06-08T15:02:30.781Z,99098.81
2023-06-08T15:07:37.015Z,99084.94
2023-06-08T15:12:39.989Z,99095.56
2023-06-08T15:17:42.625Z,99080.88
2023-06-08T15:22:46.709Z,99090.41
2023-06-08T15:27:49.381Z,99082.50
2023-06-08T15:32:52.035Z,99083.34
2023-06-08T15:37:56.170Z,99082.50
2023-06-08T15:42:58.848Z,99086.06
2023-06-08T15:48:01.498Z,99087.44
2023-06-08T15:53:05.566Z,99089.06
2023-06-08T15:58:09.199Z,99076.09
2023-06-08T16:03:11.873Z,99065.22
2023-06-08T16:08:18.031Z,99048.63
2023-06-08T16:13:20.695Z,99035.88
2023-06-08T16:18:23.507Z,99033.97
2023-06-08T16:23:28.208Z,99048.38
2023-06-08T16:28:31.620Z,99059.00
2023-06-08T16:33:34.348Z,99064.16
2023-06-08T16:38:39.415Z,99062.25
2023-06-08T16:43:42.926Z,99062.00
2023-06-08T16:48:45.665Z,99058.19
2023-06-08T16:53:49.685Z,99050.03
2023-06-08T16:58:52.359Z,99043.53
2023-06-08T17:03:55.076Z,99038.91
2023-06-08T17:08:59.038Z,99037.56
2023-06-08T17:14:01.681Z,99052.25
2023-06-08T17:19:04.468Z,99046.53
2023-06-08T17:24:08.910Z,99056.59
2023-06-08T17:29:11.657Z,99071.56
2023-06-08T17:34:14.948Z,99082.16
2023-06-08T17:39:18.934Z,99078.59
2023-06-08T17:44:21.605Z,99089.75
2023-06-08T17:49:24.259Z,99085.13
2023-06-08T17:54:28.230Z,99084.88
2023-06-08T17:59:30.877Z,99080.25
2023-06-08T18:04:33.560Z,99090.84
2023-06-08T18:09:37.575Z,99095.22
2023-06-08T18:14:40.269Z,99101.72
2023-06-08T18:19:42.940Z,99104.44
2023-06-08T18:24:46.906Z,99108.81
2023-06-08T18:29:49.562Z,99108.53
2023-06-08T18:34:52.951Z,99106.63
2023-06-08T18:39:59.212Z,99106.63
2023-06-08T18:45:16.531Z,99104.47
2023-06-08T18:50:19.199Z,99112.09
2023-06-08T18:55:23.224Z,99113.19
2023-06-08T19:00:26.209Z,99120.25
2023-06-08T19:05:28.894Z,99112.09
2023-06-08T19:10:32.901Z,99125.44
2023-06-08T19:15:35.528Z,99125.19
2023-06-08T19:20:38.154Z,99134.72
2023-06-08T19:25:42.138Z,99136.44
2023-06-08T19:30:44.839Z,99142.66
2023-06-08T19:35:47.481Z,99129.63
2023-06-08T19:40:51.456Z,99132.38
2023-06-08T19:45:54.228Z,99137.00
2023-06-08T19:50:56.883Z,99141.13
2023-06-08T19:56:00.975Z,99141.44
2023-06-08T20:01:03.822Z,99139.00
2023-06-08T20:06:06.673Z,99125.75
2023-06-08T20:11:10.745Z,99147.53
2023-06-08T20:16:13.665Z,99126.59
2023-06-08T20:21:16.446Z,99141.56
2023-06-08T20:26:20.524Z,99135.84
2023-06-08T20:31:23.355Z,99133.13
2023-06-08T20:36:26.246Z,99123.06
2023-06-08T20:41:30.315Z,99126.59
2023-06-08T20:46:33.387Z,99131.50
2023-06-08T20:51:36.336Z,99131.75
2023-06-08T20:56:40.461Z,99151.88
2023-06-08T21:01:43.173Z,99155.16
2023-06-08T21:06:46.301Z,99161.94
2023-06-08T21:11:53.128Z,99168.75
2023-06-08T21:16:56.141Z,99167.63
2023-06-08T21:21:58.817Z,99165.69
2023-06-08T21:27:02.809Z,99158.03
2023-06-08T21:32:06.315Z,99162.59
2023-06-08T21:37:08.975Z,99166.13
2023-06-08T21:42:13.743Z,99168.00
2023-06-08T21:47:16.449Z,99175.06
2023-06-08T21:52:19.197Z,99170.97
2023-06-08T21:57:23.162Z,99176.94
2023-06-08T22:02:25.932Z,99190.50
2023-06-08T22:07:28.721Z,99187.22
2023-06-08T22:12:33.090Z,99175.78
2023-06-08T22:17:35.855Z,99182.81
2023-06-08T22:22:38.586Z,99177.91
2023-06-08T22:27:42.802Z,99174.91
2023-06-08T22:32:45.767Z,99183.31
2023-06-08T22:37:48.376Z,99176.22
2023-06-08T22:42:52.388Z,99181.63
2023-06-08T22:47:55.139Z,99183.53
2023-06-08T22:52:59.401Z,99189.50
2023-06-08T22:58:03.745Z,99193.81
2023-06-08T23:03:09.316Z,99191.34
2023-06-08T23:08:13.751Z,99203.00
2023-06-08T23:13:18.639Z,99207.59
2023-06-08T23:18:25.212Z,99191.81
2023-06-08T23:23:28.652Z,99204.59
2023-06-08T23:28:38.084Z,99186.06
2023-06-08T23:33:40.937Z,99184.69
2023-06-08T23:38:43.644Z,99178.69
2023-06-08T23:43:48.406Z,99165.38
2023-06-08T23:48:51.097Z,99169.41
2023-06-08T23:53:53.791Z,99159.06
2023-06-08T23:58:57.824Z,99154.97
